Portada
METAR-TAF:

METAR-TAF

Aeroports :

Adelaida, Austràlia

latitud: 34-56S, longitud: 138-31E, altitud: 6 m

Observació

L'informe es va fer fa 37 minuts, a les 20:00 UTC
Vent 5 kt del Est
Temperatura 9°C
Humitat 81%
Pressió 1021 hPa
Visibilitat 10 km o més
Cel ennuvolat a una alçada de 3500 ft

METAR: YPAD 152000Z 10005KT 9999 BKN035 09/06 Q1021

Hora: 07:07 (20:37 UTC)

Pronòstic

L'informe es va fer fa 3 hores i 31 minuts, a les 17:06 UTC
Pronòstic vàlid del 15 a les 18 UTC al 16 a les 18 UTC
Vent 5 kt amb direcció variable
Visibilitat 10 km o més
Escasses núvols a una alçada de 2500 ft
A partir de les 16 a les 0100 UTC
Vent 14 kt del Sud-Oest
Visibilitat 10 km o més
sense núvols per sota de 1500 mi sense presència de cumulonimbus.
A partir de les 16 a les 1000 UTC
Vent 12 kt del Sud/Sud-Est
Visibilitat 10 km o més
sense núvols per sota de 1500 mi sense presència de cumulonimbus.

TAF: YPAD 151706Z 1518/1618 VRB05KT 9999 FEW025 FM160100 23014KT CAVOK FM161000 15012KT CAVOK

Observacions i pronòstics meteorològics de més de 4000 aeroports (METAR i TAF).

Les estacions disponibles són els punts grocs i vermells al mapa.

Posi el ratolí al punt desitjat per veure el nom de l'estació.

Feu clic per veure les observacions i els pronòstics meteorològics.

Per canviar el mapa: feu clic els botons verds amb una creu de color negre per apropar; al botó verd amb un guió per allunyar la imatge; o en les fletxes verdes per a mapes adjacents.


METAR-TAF: